Time;durP1;ratioP1;P1;durP2;ratioP2;P2;SDS_P1;SDS_P2;PMS_P1;PMS_P2;Temp;Humidity;BMP_temperature;BMP_pressure;BME280_temperature;BME280_humidity;BME280_pressure;Samples;Min_cycle;Max_cycle;Signal;HPM_P1;HPM_P2
2022/12/05 00:01:35;;;;;;;10.20;6.82;;;;;;;6.47;73.46;95538.31;4152047;28;20093;-51
2022/12/05 00:03:36;;;;;;;10.95;6.90;;;;;;;6.45;73.87;95542.81;4146283;28;20144;-55
2022/12/05 00:05:39;;;;;;;11.18;6.75;;;;;;;6.49;73.81;95546.84;4153658;28;20129;-50
2022/12/05 00:07:41;;;;;;;10.13;6.53;;;;;;;6.49;73.50;95547.66;4163586;28;20056;-49
2022/12/05 00:09:43;;;;;;;11.13;7.20;;;;;;;6.47;73.82;95544.34;4163652;28;20502;-47
2022/12/05 00:11:45;;;;;;;11.13;7.13;;;;;;;6.50;73.68;95538.94;4153751;28;20157;-59
2022/12/05 00:13:47;;;;;;;11.00;7.45;;;;;;;6.49;73.69;95541.63;4162805;28;20099;-52
2022/12/05 00:15:49;;;;;;;14.40;8.27;;;;;;;6.50;73.82;95538.94;4153473;28;20052;-53
2022/12/05 00:17:50;;;;;;;15.55;8.38;;;;;;;6.53;73.84;95543.06;4161402;28;20049;-51
2022/12/05 00:19:52;;;;;;;13.60;7.68;;;;;;;6.57;73.63;95549.72;4160667;28;20118;-52
2022/12/05 00:21:57;;;;;;;12.10;7.18;;;;;;;6.52;73.36;95544.84;4168047;28;20053;-53
2022/12/05 00:24:00;;;;;;;14.45;7.65;;;;;;;6.55;73.40;95554.19;4169946;28;20060;-53
2022/12/05 00:26:03;;;;;;;11.23;7.10;;;;;;;6.49;73.16;95552.88;4162693;28;20058;-51
2022/12/05 00:28:05;;;;;;;11.00;7.07;;;;;;;6.49;73.35;95555.47;4162754;28;20144;-56
2022/12/05 00:30:07;;;;;;;10.18;6.47;;;;;;;6.48;73.43;95556.44;4162361;28;20551;-54
2022/12/05 00:32:08;;;;;;;9.98;6.43;;;;;;;6.48;73.34;95560.81;4162249;28;20516;-53
2022/12/05 00:34:10;;;;;;;13.75;7.00;;;;;;;6.47;73.52;95565.16;4152977;28;20338;-54
2022/12/05 00:36:15;;;;;;;12.65;7.40;;;;;;;6.47;73.34;95565.16;4159877;28;20144;-51
2022/12/05 00:38:16;;;;;;;11.85;6.72;;;;;;;6.44;73.41;95562.78;4164768;28;20045;-52
2022/12/05 00:40:18;;;;;;;10.02;6.75;;;;;;;6.45;73.48;95555.81;4173785;28;20233;-51
2022/12/05 00:42:20;;;;;;;11.15;6.82;;;;;;;6.46;73.27;95557.50;4169554;28;20617;-49
2022/12/05 00:44:21;;;;;;;13.55;7.53;;;;;;;6.47;73.45;95554.75;4170130;28;20130;-52
2022/12/05 00:46:25;;;;;;;12.90;7.47;;;;;;;6.49;73.60;95557.25;4157775;28;20560;-53
2022/12/05 00:48:28;;;;;;;11.35;6.80;;;;;;;6.50;73.27;95559.75;4157974;28;20050;-53
2022/12/05 00:50:30;;;;;;;11.23;7.22;;;;;;;6.48;73.07;95560.81;4162327;28;20057;-49
2022/12/05 00:52:31;;;;;;;12.30;6.53;;;;;;;6.49;73.44;95557.25;4177792;28;20076;-55
2022/12/05 00:54:33;;;;;;;11.27;7.05;;;;;;;6.47;73.47;95548.72;4177720;28;20064;-51
2022/12/05 00:56:35;;;;;;;11.65;7.40;;;;;;;6.48;73.60;95551.22;4164441;28;20045;-50
2022/12/05 00:58:37;;;;;;;10.95;6.70;;;;;;;6.49;73.38;95549.44;4145398;28;20081;-49
2022/12/05 01:00:39;;;;;;;12.35;7.18;;;;;;;6.42;73.55;95540.44;4153703;28;20364;-54
2022/12/05 01:02:41;;;;;;;10.98;6.72;;;;;;;6.34;73.47;95536.59;4154690;28;20147;-53
2022/12/05 01:04:42;;;;;;;11.32;7.65;;;;;;;6.31;73.35;95536.84;4147783;28;20085;-53
2022/12/05 01:06:44;;;;;;;11.13;7.03;;;;;;;6.31;74.05;95533.41;4171942;28;20055;-54
2022/12/05 01:08:46;;;;;;;15.48;8.48;;;;;;;6.34;73.99;95543.59;4176185;28;20118;-54
2022/12/05 01:10:53;;;;;;;11.15;6.95;;;;;;;6.27;73.64;95535.41;4168484;28;20049;-50
2022/12/05 01:12:55;;;;;;;10.93;6.80;;;;;;;6.29;74.39;95524.88;4144878;28;21159;-49
2022/12/05 01:14:57;;;;;;;12.88;7.78;;;;;;;6.33;74.44;95534.97;4157285;28;20053;-50
2022/12/05 01:16:58;;;;;;;12.82;7.22;;;;;;;6.38;74.05;95529.41;4161410;28;20048;-52
2022/12/05 01:19:03;;;;;;;12.82;8.25;;;;;;;6.35;73.50;95535.69;4155348;28;20060;-51
2022/12/05 01:21:05;;;;;;;13.40;7.55;;;;;;;6.32;73.79;95532.47;4155020;28;20093;-54
2022/12/05 01:23:08;;;;;;;13.98;8.43;;;;;;;6.33;73.92;95527.16;4161345;28;20056;-54
2022/12/05 01:25:09;;;;;;;13.10;8.15;;;;;;;6.39;74.08;95533.69;4171765;28;20071;-53
2022/12/05 01:27:11;;;;;;;12.57;7.72;;;;;;;6.46;74.01;95531.47;4166813;28;20046;-52
2022/12/05 01:29:15;;;;;;;11.57;7.10;;;;;;;6.46;73.68;95521.88;4167187;28;20204;-52
2022/12/05 01:31:28;;;;;;;13.65;7.57;;;;;;;6.43;73.62;95516.06;4166872;28;20170;-51
2022/12/05 01:33:29;;;;;;;11.60;6.88;;;;;;;6.44;73.60;95518.56;4171632;28;20195;-51
2022/12/05 01:35:32;;;;;;;11.18;7.20;;;;;;;6.41;73.75;95517.94;4173871;28;20641;-51
2022/12/05 01:37:34;;;;;;;13.10;7.28;;;;;;;6.45;73.87;95515.00;4163060;28;20049;-53
2022/12/05 01:39:36;;;;;;;13.55;7.40;;;;;;;6.40;73.54;95517.13;4154365;28;20056;-49
2022/12/05 01:41:44;;;;;;;14.40;7.20;;;;;;;6.36;74.02;95503.50;4164653;28;20050;-50
2022/12/05 01:43:56;;;;;;;12.68;7.47;;;;;;;6.32;74.01;95503.84;4164939;28;20059;-52
2022/12/05 01:45:58;;;;;;;14.00;7.65;;;;;;;6.27;73.94;95505.97;4163849;28;20058;-52
2022/12/05 01:48:04;;;;;;;12.70;6.63;;;;;;;6.25;74.05;95510.44;4163741;28;20137;-57
2022/12/05 01:50:07;;;;;;;11.73;6.97;;;;;;;6.18;74.13;95509.25;4165594;28;20391;-54
2022/12/05 01:52:14;;;;;;;12.10;6.85;;;;;;;6.15;74.17;95510.28;4160592;28;20076;-51
2022/12/05 01:54:17;;;;;;;13.60;7.63;;;;;;;6.14;74.79;95509.44;4159398;28;20087;-51
2022/12/05 01:56:19;;;;;;;12.88;7.75;;;;;;;6.14;74.84;95512.06;4165259;28;20056;-51
2022/12/05 01:58:23;;;;;;;12.50;7.20;;;;;;;6.18;74.75;95504.03;4154978;28;20445;-53
2022/12/05 02:00:25;;;;;;;12.23;7.50;;;;;;;6.17;74.48;95505.78;4163676;28;20053;-49
2022/12/05 02:02:28;;;;;;;12.55;7.63;;;;;;;6.17;74.48;95508.38;4163596;28;20126;-51
2022/12/05 02:04:35;;;;;;;12.55;7.20;;;;;;;6.15;74.61;95502.47;4151856;28;20045;-55
2022/12/05 02:06:37;;;;;;;11.15;7.07;;;;;;;6.13;74.66;95505.19;4169122;28;20362;-48
2022/12/05 02:08:39;;;;;;;11.73;6.78;;;;;;;6.15;74.69;95505.91;4175389;28;20138;-54
2022/12/05 02:10:52;;;;;;;13.57;7.32;;;;;;;6.16;74.92;95511.94;4158676;28;20072;-53
2022/12/05 02:13:01;;;;;;;14.48;8.25;;;;;;;6.07;74.98;95515.22;4163165;28;20110;-54
2022/12/05 02:15:09;;;;;;;13.80;7.55;;;;;;;6.08;74.99;95520.28;4176826;28;20045;-55
2022/12/05 02:17:30;;;;;;;12.82;7.40;;;;;;;6.09;75.45;95521.97;4155858;28;20446;-53
2022/12/05 02:20:11;;;;;;;16.35;8.13;;;;;;;6.14;75.01;95517.25;4179243;28;20493;-51
2022/12/05 02:22:31;;;;;;;12.88;7.57;;;;;;;6.16;74.80;95511.94;4159515;28;20052;-51
2022/12/05 02:25:06;;;;;;;14.93;7.60;;;;;;;6.06;75.04;95521.34;4166579;28;20049;-52
2022/12/05 02:27:48;;;;;;;13.52;7.90;;;;;;;6.02;75.32;95517.31;4170139;28;20049;-50
2022/12/05 02:29:59;;;;;;;14.00;7.70;;;;;;;6.05;75.49;95507.53;4157897;28;20167;-53
2022/12/05 02:32:15;;;;;;;13.70;7.65;;;;;;;6.12;75.40;95506.13;4176212;28;20056;-52
2022/12/05 02:34:30;;;;;;;13.05;7.90;;;;;;;6.22;75.50;95510.69;4162776;28;20104;-55
2022/12/05 02:36:40;;;;;;;14.30;8.98;;;;;;;6.22;75.17;95502.88;4162420;28;20385;-50
2022/12/05 02:39:10;;;;;;;15.27;8.00;;;;;;;6.27;74.94;95508.56;4173559;28;20227;-51
2022/12/05 02:41:36;;;;;;;12.20;7.82;;;;;;;6.29;75.13;95498.88;4161873;28;20080;-53
2022/12/05 02:43:43;;;;;;;13.32;7.45;;;;;;;6.27;74.67;95495.56;4159668;28;20157;-51
2022/12/05 02:45:49;;;;;;;12.43;7.18;;;;;;;6.29;74.98;95496.25;4161542;28;20645;-50
2022/12/05 02:47:53;;;;;;;11.32;7.18;;;;;;;6.29;74.93;95491.06;4161578;28;20613;-51
2022/12/05 02:49:55;;;;;;;13.65;7.72;;;;;;;6.33;75.04;95495.09;4159879;28;20048;-54
2022/12/05 02:51:59;;;;;;;12.35;7.35;;;;;;;6.36;74.69;95493.06;4163137;28;20055;-50
2022/12/05 02:54:04;;;;;;;11.15;7.28;;;;;;;6.34;74.29;95492.38;4162980;28;20461;-52
2022/12/05 02:56:07;;;;;;;12.48;7.03;;;;;;;6.40;74.48;95490.28;4168054;28;20060;-52
2022/12/05 02:58:13;;;;;;;13.80;7.47;;;;;;;6.45;74.59;95486.34;4159748;28;20046;-51
2022/12/05 03:00:15;;;;;;;11.50;7.03;;;;;;;6.36;74.54;95490.47;4161126;28;20454;-56
2022/12/05 03:02:30;;;;;;;15.35;7.70;;;;;;;6.41;74.33;95486.72;4163277;28;20437;-54
2022/12/05 03:04:32;;;;;;;12.60;7.22;;;;;;;6.41;74.25;95490.16;4155787;28;20076;-47
2022/12/05 03:06:38;;;;;;;14.05;7.57;;;;;;;6.41;74.14;95489.31;4167821;28;20053;-54
2022/12/05 03:09:10;;;;;;;13.32;7.70;;;;;;;6.34;74.31;95488.94;4178986;28;20122;-53
2022/12/05 03:11:12;;;;;;;13.77;7.18;;;;;;;6.33;74.04;95487.28;4156113;28;20045;-51
2022/12/05 03:13:19;;;;;;;11.88;7.00;;;;;;;6.31;74.18;95490.00;4174372;28;20050;-49
2022/12/05 03:15:27;;;;;;;10.70;7.55;;;;;;;6.34;74.51;95488.94;4153879;28;20072;-53
2022/12/05 03:17:32;;;;;;;12.73;7.13;;;;;;;6.32;74.26;95483.88;4146187;28;20057;-51
2022/12/05 03:19:33;;;;;;;11.25;7.00;;;;;;;6.33;74.35;95487.28;4158063;28;20088;-47
2022/12/05 03:21:46;;;;;;;11.23;7.18;;;;;;;6.38;74.05;95490.38;4146428;28;20483;-50
2022/12/05 03:23:55;;;;;;;13.23;7.57;;;;;;;6.40;74.30;95490.28;4152230;28;20049;-51
2022/12/05 03:26:23;;;;;;;11.02;7.55;;;;;;;6.41;74.30;95497.97;4144796;28;20050;-51
2022/12/05 03:28:29;;;;;;;14.32;7.90;;;;;;;6.44;74.45;95497.72;4161352;28;20092;-52
2022/12/05 03:30:34;;;;;;;15.68;8.32;;;;;;;6.30;74.58;95492.72;4155488;28;20129;-52
2022/12/05 03:33:08;;;;;;;12.65;7.75;;;;;;;6.22;74.56;95500.28;4160669;28;20140;-50
2022/12/05 03:35:48;;;;;;;13.38;7.53;;;;;;;6.04;74.91;95502.44;4147687;28;20045;-54
2022/12/05 03:37:57;;;;;;;14.88;8.05;;;;;;;5.87;76.13;95514.88;4159583;28;20045;-51
2022/12/05 03:40:07;;;;;;;15.48;8.40;;;;;;;5.83;76.44;95502.16;4146791;28;20057;-49
2022/12/05 03:42:14;;;;;;;15.18;8.45;;;;;;;5.78;76.06;95501.69;4151343;28;20084;-51
2022/12/05 03:44:34;;;;;;;14.00;8.02;;;;;;;5.74;76.96;95495.84;4158450;28;20140;-49
2022/12/05 03:46:41;;;;;;;13.90;8.38;;;;;;;5.82;76.93;95496.16;4152233;28;20053;-51
2022/12/05 03:48:54;;;;;;;14.98;8.63;;;;;;;5.95;76.61;95502.16;4176559;28;20167;-49
2022/12/05 03:50:57;;;;;;;14.65;7.72;;;;;;;6.10;76.24;95500.22;4158612;28;20067;-52
2022/12/05 03:53:02;;;;;;;14.60;8.18;;;;;;;6.18;75.67;95501.44;4163856;28;20052;-52
2022/12/05 03:55:22;;;;;;;13.82;7.60;;;;;;;6.28;75.43;95498.03;4161573;28;20056;-49
2022/12/05 03:57:28;;;;;;;12.43;7.70;;;;;;;6.32;75.15;95499.47;4146049;28;20057;-53
2022/12/05 03:59:45;;;;;;;14.85;8.70;;;;;;;6.36;74.38;95505.28;4158903;28;20129;-52
2022/12/05 04:01:47;;;;;;;13.25;8.07;;;;;;;6.37;74.76;95504.34;4175508;28;20101;-54
2022/12/05 04:03:53;;;;;;;17.67;9.35;;;;;;;6.38;74.96;95500.78;4158185;28;20125;-51
2022/12/05 04:05:58;;;;;;;12.75;7.45;;;;;;;6.44;74.80;95496.91;4144943;28;20090;-51
2022/12/05 04:08:15;;;;;;;18.10;8.40;;;;;;;6.45;74.74;95499.38;4175850;28;20071;-49
2022/12/05 04:10:23;;;;;;;15.38;8.25;;;;;;;6.49;74.79;95489.56;4176729;28;20068;-50
2022/12/05 04:12:28;;;;;;;14.23;8.43;;;;;;;6.53;74.59;95489.22;4175781;28;20060;-54
2022/12/05 04:14:43;;;;;;;14.05;7.70;;;;;;;6.51;74.32;95483.31;4154265;28;20638;-52
2022/12/05 04:17:02;;;;;;;18.23;7.60;;;;;;;6.52;74.53;95482.38;4156776;28;20049;-49
2022/12/05 04:19:03;;;;;;;12.40;7.30;;;;;;;6.57;74.55;95474.22;4144230;28;20064;-51
2022/12/05 04:23:26;;;;;;;13.77;8.40;;;;;;;6.56;74.45;95481.19;4171355;28;20056;-51
2022/12/05 04:25:39;;;;;;;12.93;7.72;;;;;;;6.55;73.76;95474.31;4161530;28;20083;-52
2022/12/05 04:27:50;;;;;;;17.45;8.40;;;;;;;6.59;73.81;95474.94;4162244;28;20084;-49
2022/12/05 04:30:03;;;;;;;13.27;7.32;;;;;;;6.58;73.62;95473.25;4165656;28;20080;-52
2022/12/05 04:32:07;;;;;;;13.70;8.50;;;;;;;6.60;73.85;95475.75;4160752;28;20063;-54
2022/12/05 04:34:10;;;;;;;;;;;;;;;6.56;73.70;95476.00;4165609;28;20394;-54
2022/12/05 04:36:15;;;;;;;11.77;6.80;;;;;;;6.56;73.54;95478.59;4164527;28;20019;-52
2022/12/05 04:38:27;;;;;;;14.30;8.55;;;;;;;6.55;73.82;95484.72;4146204;28;20081;-52
2022/12/05 04:40:34;;;;;;;15.10;8.38;;;;;;;6.56;73.92;95489.00;4161857;28;20049;-50
2022/12/05 04:42:37;;;;;;;15.98;7.88;;;;;;;6.60;73.82;95492.19;4156187;28;20072;-51
2022/12/05 04:44:43;;;;;;;15.45;8.25;;;;;;;6.63;73.40;95496.38;4163909;28;20051;-54
2022/12/05 04:46:45;;;;;;;14.98;7.70;;;;;;;6.66;74.01;95485.72;4157111;28;20046;-52
2022/12/05 04:48:59;;;;;;;16.30;8.15;;;;;;;6.68;73.78;95491.63;4168989;28;20053;-52
2022/12/05 04:51:03;;;;;;;16.95;8.50;;;;;;;6.66;73.32;95486.53;4164986;28;20064;-49
2022/12/05 04:53:05;;;;;;;13.80;8.43;;;;;;;6.70;73.66;95489.75;4161052;28;20049;-51
2022/12/05 04:55:24;;;;;;;12.88;7.57;;;;;;;6.73;73.48;95492.09;4165535;28;20053;-49
2022/12/05 04:57:36;;;;;;;13.25;7.78;;;;;;;6.71;73.22;95500.06;4157198;28;20741;-50
2022/12/05 04:59:38;;;;;;;13.98;8.32;;;;;;;6.70;73.23;95502.75;4152532;28;20530;-52
2022/12/05 05:01:52;;;;;;;15.00;7.65;;;;;;;6.71;73.40;95496.59;4166102;28;20047;-52
2022/12/05 05:03:55;;;;;;;;;;;;;;;6.71;73.27;95502.66;4164585;28;20188;-51
2022/12/05 05:05:57;;;;;;;13.75;8.38;;;;;;;6.72;72.95;95508.69;4160830;28;19968;-52
2022/12/05 05:07:59;;;;;;;14.05;8.30;;;;;;;6.66;73.16;95506.53;4165253;28;20050;-54
2022/12/05 05:10:00;;;;;;;13.77;7.97;;;;;;;6.62;73.24;95505.94;4142695;28;20569;-52
2022/12/05 05:12:03;;;;;;;14.13;8.15;;;;;;;6.60;73.55;95510.41;4156573;28;20053;-54
2022/12/05 05:14:04;;;;;;;12.32;7.40;;;;;;;6.63;73.13;95515.41;4158410;28;20049;-52
2022/12/05 05:16:07;;;;;;;15.20;8.32;;;;;;;6.63;73.21;95523.22;4160267;28;20045;-53
2022/12/05 05:18:09;;;;;;;15.25;8.45;;;;;;;6.55;73.55;95515.97;4160603;28;20514;-50
2022/12/05 05:20:22;;;;;;;11.98;7.22;;;;;;;6.57;73.64;95523.69;4160297;28;20088;-56
2022/12/05 05:22:24;;;;;;;13.38;7.90;;;;;;;6.57;73.72;95526.28;4145366;28;20116;-58
2022/12/05 05:24:26;;;;;;;12.90;7.55;;;;;;;6.59;73.73;95527.00;4158811;28;20123;-56
2022/12/05 05:26:28;;;;;;;13.52;7.57;;;;;;;6.56;73.54;95528.06;4176715;28;20059;-54
2022/12/05 05:28:30;;;;;;;12.55;7.43;;;;;;;6.53;73.62;95527.44;4176246;28;20053;-54
2022/12/05 05:30:32;;;;;;;15.82;8.43;;;;;;;6.57;73.64;95523.69;4176905;28;20197;-51
2022/12/05 05:32:34;;;;;;;15.55;8.13;;;;;;;6.60;73.48;95526.03;4176875;28;20053;-52
2022/12/05 05:34:36;;;;;;;19.88;7.85;;;;;;;6.57;73.52;95528.88;4177060;28;20068;-49
2022/12/05 05:36:38;;;;;;;16.67;8.05;;;;;;;6.61;73.60;95526.88;4169102;28;20088;-50
2022/12/05 05:38:48;;;;;;;15.40;7.78;;;;;;;6.64;73.45;95524.03;4148775;28;20062;-52
2022/12/05 05:40:50;;;;;;;13.45;7.60;;;;;;;6.63;73.43;95527.59;4150205;28;20056;-54
2022/12/05 05:42:51;;;;;;;16.55;8.07;;;;;;;6.63;73.27;95522.41;4162606;28;20089;-52
2022/12/05 05:44:53;;;;;;;14.48;7.93;;;;;;;6.65;73.60;95521.34;4144463;28;20069;-49
2022/12/05 05:46:55;;;;;;;18.83;8.40;;;;;;;6.64;73.27;95524.88;4158124;28;20425;-52
2022/12/05 05:48:57;;;;;;;16.40;7.70;;;;;;;6.68;73.17;95522.88;4160923;28;20136;-55
2022/12/05 05:50:59;;;;;;;15.77;8.15;;;;;;;6.68;73.50;95522.88;4160972;28;20056;-51
2022/12/05 05:53:01;;;;;;;16.88;8.52;;;;;;;6.68;72.80;95536.72;4161063;28;20509;-48
2022/12/05 05:55:04;;;;;;;13.63;7.68;;;;;;;6.71;73.49;95538.25;4147033;28;20046;-51
2022/12/05 05:57:06;;;;;;;17.10;7.65;;;;;;;6.74;73.33;95540.66;4160519;28;20061;-50
2022/12/05 05:59:08;;;;;;;12.07;7.47;;;;;;;6.79;73.35;95548.13;4151275;28;20066;-55
2022/12/05 06:01:11;;;;;;;14.27;7.75;;;;;;;6.78;72.63;95544.69;4144050;28;20061;-51
2022/12/05 06:03:13;;;;;;;15.07;7.22;;;;;;;6.75;72.89;95548.34;4159208;28;20059;-52
2022/12/05 06:05:15;;;;;;;16.58;6.95;;;;;;;6.76;72.97;95547.41;4160195;28;20155;-50
2022/12/05 06:07:16;;;;;;;12.57;7.93;;;;;;;6.80;72.71;95547.16;4152488;28;20191;-53
2022/12/05 06:09:19;;;;;;;16.52;7.40;;;;;;;6.82;72.43;95537.44;4159726;28;20046;-52
2022/12/05 06:11:23;;;;;;;11.77;7.82;;;;;;;6.81;72.43;95549.66;4146959;28;20065;-52
2022/12/05 06:13:26;;;;;;;17.75;7.88;;;;;;;6.84;72.33;95552.03;4159329;28;20065;-51
2022/12/05 06:15:28;;;;;;;10.85;7.28;;;;;;;6.85;72.77;95552.88;4153206;28;20144;-52
2022/12/05 06:17:30;;;;;;;13.07;7.63;;;;;;;6.90;72.56;95543.75;4147156;28;20049;-52
2022/12/05 06:19:31;;;;;;;14.38;8.43;;;;;;;6.85;72.62;95547.66;4147548;28;20121;-51
2022/12/05 06:21:33;;;;;;;12.63;8.18;;;;;;;6.88;72.51;95547.41;4148793;28;20049;-52
2022/12/05 06:23:36;;;;;;;15.48;8.32;;;;;;;6.91;72.46;95548.03;4155388;28;20385;-52
2022/12/05 06:25:38;;;;;;;15.77;8.00;;;;;;;6.93;72.67;95545.31;4170786;28;20052;-51
2022/12/05 06:27:39;;;;;;;15.23;7.43;;;;;;;6.92;72.05;95544.47;4174953;28;20416;-53
2022/12/05 06:29:41;;;;;;;16.05;8.38;;;;;;;6.88;72.58;95545.66;4176095;28;20168;-58
2022/12/05 06:31:43;;;;;;;11.68;6.95;;;;;;;6.92;72.59;95543.63;4167901;28;20409;-54
2022/12/05 06:33:44;;;;;;;17.50;7.53;;;;;;;6.92;72.39;95539.25;4161586;28;20061;-52
2022/12/05 06:35:46;;;;;;;11.32;7.45;;;;;;;6.90;72.38;95543.75;4172571;28;20122;-51
2022/12/05 06:37:48;;;;;;;15.45;7.57;;;;;;;6.93;72.75;95556.56;4156350;28;20073;-53
2022/12/05 06:39:51;;;;;;;14.85;7.78;;;;;;;6.95;72.18;95546.84;4160453;28;20520;-53
2022/12/05 06:41:52;;;;;;;13.15;7.30;;;;;;;6.92;72.30;95551.44;4176630;28;20096;-56
2022/12/05 06:43:54;;;;;;;14.35;7.13;;;;;;;6.87;72.38;95557.00;4174396;28;20144;-57
2022/12/05 06:46:07;;;;;;;16.23;7.38;;;;;;;6.87;72.24;95557.00;4175357;28;20538;-55
2022/12/05 06:48:08;;;;;;;14.73;7.65;;;;;;;6.90;72.79;95558.53;4175835;28;20073;-52
2022/12/05 06:50:10;;;;;;;13.23;6.97;;;;;;;6.92;72.69;95547.06;4173616;28;20528;-52
2022/12/05 06:52:12;;;;;;;10.90;7.28;;;;;;;6.94;72.35;95558.19;4152606;28;20137;-56
2022/12/05 06:54:14;;;;;;;18.65;7.68;;;;;;;6.93;72.29;95556.56;4176520;28;20045;-56
2022/12/05 06:56:18;;;;;;;11.10;7.10;;;;;;;6.86;72.09;95554.50;4176220;28;20049;-58
2022/12/05 06:58:20;;;;;;;14.23;7.20;;;;;;;6.85;72.60;95563.28;4174104;28;20060;-56
2022/12/05 07:02:42;;;;;;;12.63;7.25;;;;;;;6.92;72.52;95549.66;4173490;28;20171;-55
2022/12/05 07:04:44;;;;;;;13.70;7.65;;;;;;;6.95;72.43;95551.22;4169822;28;20049;-50
2022/12/05 07:06:48;;;;;;;12.77;7.28;;;;;;;6.97;72.73;95557.97;4162826;28;20042;-58
2022/12/05 07:08:51;;;;;;;12.50;7.78;;;;;;;7.02;72.63;95554.19;4150185;28;20111;-54
2022/12/05 07:10:53;;;;;;;12.82;7.53;;;;;;;7.04;72.45;95567.94;4159771;28;20045;-57
2022/12/05 07:12:55;;;;;;;11.70;7.78;;;;;;;7.09;71.90;95552.78;4152271;28;20625;-50
2022/12/05 07:14:57;;;;;;;14.32;7.47;;;;;;;7.11;71.64;95561.31;4152917;28;20077;-52
2022/12/05 07:16:58;;;;;;;13.45;7.68;;;;;;;7.14;72.32;95559.31;4159462;28;20045;-55
2022/12/05 07:19:02;;;;;;;13.18;7.13;;;;;;;7.18;72.09;95557.28;4154053;28;20466;-52
2022/12/05 07:21:06;;;;;;;12.57;6.70;;;;;;;7.18;71.73;95567.69;4164536;28;20049;-53
2022/12/05 07:23:13;;;;;;;12.60;7.60;;;;;;;7.21;71.67;95558.84;4156421;28;20049;-51
2022/12/05 07:25:15;;;;;;;13.80;7.43;;;;;;;7.23;71.48;95560.38;4166068;28;20054;-57
2022/12/05 07:27:17;;;;;;;15.73;8.68;;;;;;;7.23;72.04;95557.78;4173126;28;20061;-53
2022/12/05 07:29:27;;;;;;;15.27;8.80;;;;;;;7.23;71.49;95565.59;4166936;28;20053;-52
2022/12/05 07:31:29;;;;;;;16.33;8.73;;;;;;;7.25;71.43;95571.53;4166972;28;20521;-55
2022/12/05 07:33:31;;;;;;;15.50;8.30;;;;;;;7.19;71.12;95572.00;4173039;28;20045;-50
2022/12/05 07:35:33;;;;;;;14.75;8.63;;;;;;;7.10;71.29;95580.50;4173425;28;20056;-51
2022/12/05 07:37:34;;;;;;;14.40;8.70;;;;;;;7.04;72.13;95573.16;4169940;28;20048;-49
2022/12/05 07:39:36;;;;;;;17.80;8.50;;;;;;;7.02;72.21;95575.88;4157492;28;20119;-51
2022/12/05 07:41:37;;;;;;;18.45;8.55;;;;;;;7.07;71.92;95568.53;4173551;28;20049;-54
2022/12/05 07:43:40;;;;;;;17.50;8.23;;;;;;;7.09;72.12;95566.63;4166797;28;20056;-54
2022/12/05 07:45:42;;;;;;;15.25;8.02;;;;;;;7.14;71.70;95566.28;4166197;28;20053;-53
2022/12/05 07:47:44;;;;;;;14.60;7.80;;;;;;;7.16;72.04;95574.81;4162330;28;20157;-54
2022/12/05 07:49:46;;;;;;;16.95;9.10;;;;;;;7.20;72.05;95578.84;4162001;28;20053;-52
2022/12/05 07:51:47;;;;;;;15.40;8.23;;;;;;;7.13;71.53;95572.44;4171787;28;20429;-53
2022/12/05 07:53:49;;;;;;;12.43;7.65;;;;;;;7.13;71.78;95577.66;4161907;28;20045;-52
2022/12/05 07:55:51;;;;;;;15.63;8.95;;;;;;;7.12;71.65;95570.78;4171962;28;20060;-51
2022/12/05 07:57:52;;;;;;;13.15;8.23;;;;;;;7.13;71.59;95572.44;4171641;28;20145;-49
2022/12/05 07:59:54;;;;;;;15.30;8.93;;;;;;;7.10;71.61;95568.31;4165107;28;20438;-53
2022/12/05 08:01:56;;;;;;;14.45;9.38;;;;;;;7.12;71.94;95573.38;4167889;28;20041;-49
2022/12/05 08:03:58;;;;;;;17.02;9.73;;;;;;;7.14;72.07;95563.66;4164012;28;20124;-53
2022/12/05 08:06:02;;;;;;;19.05;9.90;;;;;;;7.14;71.82;95563.66;4163156;28;20056;-52
2022/12/05 08:08:04;;;;;;;19.58;8.85;;;;;;;7.09;71.41;95560.59;4165700;28;20116;-51
2022/12/05 08:10:07;;;;;;;20.10;10.55;;;;;;;7.06;71.60;95572.09;4164086;28;20140;-54
2022/12/05 08:12:08;;;;;;;15.50;9.73;;;;;;;7.06;71.89;95579.91;4175948;28;20155;-52
2022/12/05 08:14:10;;;;;;;15.30;8.52;;;;;;;7.00;72.40;95580.34;4177191;28;20155;-55
2022/12/05 08:16:15;;;;;;;14.02;9.15;;;;;;;6.98;72.06;95574.44;4177699;28;20092;-52
2022/12/05 08:18:16;;;;;;;17.73;9.27;;;;;;;7.01;72.42;95578.56;4177223;28;20104;-55
2022/12/05 08:20:21;;;;;;;15.98;9.25;;;;;;;7.06;72.01;95576.47;4164084;28;20049;-55
2022/12/05 08:22:22;;;;;;;16.33;8.85;;;;;;;7.08;71.57;95579.78;4178331;28;20091;-56
2022/12/05 08:24:24;;;;;;;24.35;8.57;;;;;;;6.99;72.19;95576.09;4164579;28;20061;-52
2022/12/05 08:26:28;;;;;;;16.65;8.35;;;;;;;6.93;72.51;95589.59;4178086;28;20520;-52
2022/12/05 08:28:30;;;;;;;;;;;;;;;6.86;72.68;95575.34;4177831;28;20056;-50
2022/12/05 08:30:32;;;;;;;14.70;7.90;;;;;;;6.88;72.71;95576.91;4177505;28;19927;-52
2022/12/05 08:32:34;;;;;;;11.55;7.38;;;;;;;6.90;72.85;95582.00;4174984;28;20041;-53
2022/12/05 08:34:36;;;;;;;13.02;7.50;;;;;;;6.90;72.66;95580.22;4166081;28;20072;-52
2022/12/05 08:36:37;;;;;;;16.15;8.52;;;;;;;6.82;72.75;95577.38;4177598;28;20048;-54
2022/12/05 08:38:40;;;;;;;14.50;8.10;;;;;;;6.89;73.10;95572.53;4155943;28;20147;-51
2022/12/05 08:40:41;;;;;;;16.80;8.63;;;;;;;6.95;72.79;95577.28;4175448;28;20106;-51
2022/12/05 08:42:43;;;;;;;12.18;8.13;;;;;;;6.97;72.36;95576.22;4176606;28;20110;-56
2022/12/05 08:44:45;;;;;;;16.70;8.77;;;;;;;6.98;72.52;95570.03;4176935;28;20110;-55
2022/12/05 08:46:48;;;;;;;21.45;8.63;;;;;;;7.00;72.54;95564.72;4177053;28;20379;-53
2022/12/05 08:48:50;;;;;;;12.93;8.23;;;;;;;7.05;72.96;95566.97;4148930;28;20057;-48
2022/12/05 08:50:52;;;;;;;14.50;7.55;;;;;;;7.14;72.72;95566.28;4167893;28;20060;-53
2022/12/05 08:52:54;;;;;;;16.55;8.18;;;;;;;7.24;72.23;95569.03;4175447;28;20144;-49
2022/12/05 08:54:55;;;;;;;15.32;7.65;;;;;;;7.34;72.01;95570.00;4161214;28;20060;-50
2022/12/05 08:56:58;;;;;;;14.88;7.97;;;;;;;7.46;71.81;95576.03;4165144;28;20095;-53
2022/12/05 08:59:03;;;;;;;15.27;8.85;;;;;;;7.49;71.16;95571.41;4176503;28;20068;-52
2022/12/05 09:01:10;;;;;;;12.20;7.78;;;;;;;7.52;70.60;95576.38;4176635;28;20052;-53
2022/12/05 09:03:12;;;;;;;11.50;7.57;;;;;;;7.54;70.25;95571.03;4175481;28;20077;-52
2022/12/05 09:05:14;;;;;;;14.63;7.63;;;;;;;7.54;71.32;95577.09;4165300;28;20463;-52
2022/12/05 09:07:29;;;;;;;9.90;5.72;;;;;;;7.50;70.32;95577.44;4160697;28;20072;-52
2022/12/05 09:09:32;;;;;;;12.00;6.63;;;;;;;7.49;70.45;95574.00;4165628;28;20159;-53
2022/12/05 09:11:36;;;;;;;13.60;6.87;;;;;;;7.55;69.98;95578.75;4174693;28;20402;-53
2022/12/05 09:13:38;;;;;;;10.82;6.05;;;;;;;7.56;70.20;95569.16;4175571;28;20128;-50
2022/12/05 09:15:40;;;;;;;14.95;5.68;;;;;;;7.61;70.07;95574.81;4175683;28;20049;-54
2022/12/05 09:17:42;;;;;;;9.15;5.60;;;;;;;7.63;69.01;95570.31;4169181;28;20128;-52
2022/12/05 09:19:45;;;;;;;8.00;4.93;;;;;;;7.54;69.46;95571.03;4169954;28;20083;-55
2022/12/05 09:21:47;;;;;;;7.97;5.05;;;;;;;7.54;69.93;95563.22;4175237;28;20285;-53
2022/12/05 09:23:49;;;;;;;10.18;5.18;;;;;;;7.54;69.24;95560.63;4160717;28;20041;-52
2022/12/05 09:26:00;;;;;;;7.15;5.25;;;;;;;7.52;69.42;95554.69;4148583;28;20073;-50
2022/12/05 09:28:02;;;;;;;9.48;5.38;;;;;;;7.57;69.36;95565.59;4147715;28;20469;-54
2022/12/05 09:30:06;;;;;;;8.70;4.63;;;;;;;7.61;68.91;95559.19;4167592;28;20049;-53
2022/12/05 09:32:09;;;;;;;8.57;4.95;;;;;;;7.66;68.59;95564.88;4165367;28;20053;-56
2022/12/05 09:34:12;;;;;;;8.63;5.32;;;;;;;7.65;68.76;95568.44;4173617;28;20057;-52
2022/12/05 09:36:15;;;;;;;;;;;;;;;7.65;68.63;95559.78;4166429;28;20149;-51
2022/12/05 09:38:17;;;;;;;7.10;5.00;;;;;;;7.62;69.15;95549.59;4161214;28;19929;-50
2022/12/05 09:40:19;;;;;;;8.20;5.60;;;;;;;7.71;68.75;95554.91;4169480;28;20052;-51
2022/12/05 09:42:29;;;;;;;10.43;5.55;;;;;;;7.79;68.59;95544.72;4176413;28;20633;-53
2022/12/05 09:44:58;;;;;;;8.50;5.38;;;;;;;7.80;68.75;95542.91;4174800;28;20052;-53
2022/12/05 09:47:11;;;;;;;10.13;5.03;;;;;;;7.78;68.15;95543.03;4161577;28;20049;-53
2022/12/05 09:49:12;;;;;;;12.57;5.47;;;;;;;7.77;68.40;95546.59;4160746;28;20134;-52
2022/12/05 09:51:14;;;;;;;10.45;5.60;;;;;;;7.78;68.16;95543.03;4160550;28;20136;-53
2022/12/05 09:53:29;;;;;;;8.02;4.97;;;;;;;7.76;68.25;95541.50;4147020;28;20124;-49
2022/12/05 09:55:54;;;;;;;8.38;5.43;;;;;;;7.78;68.21;95532.59;4144784;28;20132;-52